sensor_id;sensor_type;location;lat;lon;timestamp;pressure;altitude;pressure_sealevel;temperature;humidity
64544;BME280;50936;51.660;5.616;2023-03-19T00:00:42;100717.75;;;10.25;100.00
64544;BME280;50936;51.660;5.616;2023-03-19T00:03:09;100718.50;;;10.27;100.00
64544;BME280;50936;51.660;5.616;2023-03-19T00:05:36;100720.25;;;10.28;100.00
64544;BME280;50936;51.660;5.616;2023-03-19T00:08:04;100718.28;;;10.30;100.00
64544;BME280;50936;51.660;5.616;2023-03-19T00:10:31;100720.81;;;10.33;100.00
64544;BME280;50936;51.660;5.616;2023-03-19T00:12:58;100724.03;;;10.38;100.00
64544;BME280;50936;51.660;5.616;2023-03-19T00:15:26;100722.88;;;10.43;100.00
64544;BME280;50936;51.660;5.616;2023-03-19T00:17:52;100721.56;;;10.35;100.00
64544;BME280;50936;51.660;5.616;2023-03-19T00:20:22;100720.06;;;10.31;100.00
64544;BME280;50936;51.660;5.616;2023-03-19T00:22:49;100721.78;;;10.32;100.00
64544;BME280;50936;51.660;5.616;2023-03-19T00:25:16;100723.69;;;10.30;100.00
64544;BME280;50936;51.660;5.616;2023-03-19T00:27:42;100722.19;;;10.26;100.00
64544;BME280;50936;51.660;5.616;2023-03-19T00:30:10;100727.28;;;10.31;100.00
64544;BME280;50936;51.660;5.616;2023-03-19T00:32:37;100726.69;;;10.26;100.00
64544;BME280;50936;51.660;5.616;2023-03-19T00:35:05;100729.09;;;10.30;100.00
64544;BME280;50936;51.660;5.616;2023-03-19T00:37:34;100731.72;;;10.32;100.00
64544;BME280;50936;51.660;5.616;2023-03-19T00:40:03;100729.28;;;10.27;100.00
64544;BME280;50936;51.660;5.616;2023-03-19T00:42:32;100732.75;;;10.29;100.00
64544;BME280;50936;51.660;5.616;2023-03-19T00:45:00;100731.03;;;10.28;100.00
64544;BME280;50936;51.660;5.616;2023-03-19T00:47:27;100735.44;;;10.29;100.00
64544;BME280;50936;51.660;5.616;2023-03-19T00:49:53;100738.84;;;10.33;100.00
64544;BME280;50936;51.660;5.616;2023-03-19T00:52:21;100729.09;;;10.30;100.00
64544;BME280;50936;51.660;5.616;2023-03-19T00:54:48;100732.56;;;10.32;100.00
64544;BME280;50936;51.660;5.616;2023-03-19T00:57:16;100732.56;;;10.32;100.00
64544;BME280;50936;51.660;5.616;2023-03-19T00:59:43;100730.63;;;10.34;100.00
64544;BME280;50936;51.660;5.616;2023-03-19T01:02:10;100737.28;;;10.29;100.00
64544;BME280;50936;51.660;5.616;2023-03-19T01:04:37;100737.19;;;10.30;100.00
64544;BME280;50936;51.660;5.616;2023-03-19T01:07:04;100727.19;;;10.32;100.00
64544;BME280;50936;51.660;5.616;2023-03-19T01:09:32;100732.75;;;10.29;100.00
64544;BME280;50936;51.660;5.616;2023-03-19T01:11:59;100730.38;;;10.25;100.00
64544;BME280;50936;51.660;5.616;2023-03-19T01:14:31;100741.09;;;10.26;100.00
64544;BME280;50936;51.660;5.616;2023-03-19T01:16:58;100735.59;;;10.28;100.00
64544;BME280;50936;51.660;5.616;2023-03-19T01:19:25;100728.53;;;10.25;100.00
64544;BME280;50936;51.660;5.616;2023-03-19T01:21:52;100732.44;;;10.21;100.00
64544;BME280;50936;51.660;5.616;2023-03-19T01:24:21;100736.00;;;10.21;100.00
64544;BME280;50936;51.660;5.616;2023-03-19T01:26:51;100735.13;;;10.21;100.00
64544;BME280;50936;51.660;5.616;2023-03-19T01:29:30;100737.94;;;10.19;100.00
64544;BME280;50936;51.660;5.616;2023-03-19T01:32:02;100731.69;;;10.19;100.00
64544;BME280;50936;51.660;5.616;2023-03-19T01:34:52;100729.28;;;10.14;100.00
64544;BME280;50936;51.660;5.616;2023-03-19T01:37:19;100721.53;;;10.10;100.00
64544;BME280;50936;51.660;5.616;2023-03-19T01:39:47;100721.28;;;10.13;100.00
64544;BME280;50936;51.660;5.616;2023-03-19T01:42:14;100722.84;;;10.17;100.00
64544;BME280;50936;51.660;5.616;2023-03-19T01:44:50;100727.59;;;10.26;100.00
64544;BME280;50936;51.660;5.616;2023-03-19T01:47:40;100723.53;;;10.33;100.00
64544;BME280;50936;51.660;5.616;2023-03-19T01:50:22;100726.97;;;10.35;100.00
64544;BME280;50936;51.660;5.616;2023-03-19T01:53:14;100726.22;;;10.33;100.00
64544;BME280;50936;51.660;5.616;2023-03-19T01:55:48;100721.78;;;10.32;100.00
64544;BME280;50936;51.660;5.616;2023-03-19T01:58:39;100722.28;;;10.25;100.00
64544;BME280;50936;51.660;5.616;2023-03-19T02:01:27;100725.75;;;10.27;100.00
64544;BME280;50936;51.660;5.616;2023-03-19T02:04:09;100726.38;;;10.30;100.00
64544;BME280;50936;51.660;5.616;2023-03-19T02:06:47;100723.53;;;10.33;100.00
64544;BME280;50936;51.660;5.616;2023-03-19T02:09:17;100721.78;;;10.32;100.00
64544;BME280;50936;51.660;5.616;2023-03-19T02:11:44;100728.03;;;10.33;100.00
64544;BME280;50936;51.660;5.616;2023-03-19T02:14:12;100719.84;;;10.34;100.00
64544;BME280;50936;51.660;5.616;2023-03-19T02:16:39;100719.84;;;10.34;100.00
64544;BME280;50936;51.660;5.616;2023-03-19T02:19:09;100728.03;;;10.33;100.00
64544;BME280;50936;51.660;5.616;2023-03-19T02:21:42;100735.19;;;10.34;100.00
64544;BME280;50936;51.660;5.616;2023-03-19T02:24:26;100723.28;;;10.36;100.00
64544;BME280;50936;51.660;5.616;2023-03-19T02:27:06;100724.16;;;10.37;100.00
64544;BME280;50936;51.660;5.616;2023-03-19T02:29:37;100720.38;;;10.39;100.00
64544;BME280;50936;51.660;5.616;2023-03-19T02:32:05;100719.63;;;10.37;100.00
64544;BME280;50936;51.660;5.616;2023-03-19T02:34:41;100724.91;;;10.39;100.00
64544;BME280;50936;51.660;5.616;2023-03-19T02:37:20;100729.13;;;10.43;100.00
64544;BME280;50936;51.660;5.616;2023-03-19T02:39:57;100731.72;;;10.45;100.00
64544;BME280;50936;51.660;5.616;2023-03-19T02:42:28;100730.22;;;10.40;100.00
64544;BME280;50936;51.660;5.616;2023-03-19T02:44:56;100729.66;;;10.35;100.00
64544;BME280;50936;51.660;5.616;2023-03-19T02:47:24;100736.25;;;10.31;100.00
64544;BME280;50936;51.660;5.616;2023-03-19T02:49:52;100720.25;;;10.28;100.00
64544;BME280;50936;51.660;5.616;2023-03-19T02:52:22;100732.97;;;10.26;100.00
64544;BME280;50936;51.660;5.616;2023-03-19T02:54:49;100739.44;;;10.24;100.00
64544;BME280;50936;51.660;5.616;2023-03-19T02:57:16;100745.94;;;10.21;100.00
64544;BME280;50936;51.660;5.616;2023-03-19T02:59:44;100746.88;;;10.20;100.00
64544;BME280;50936;51.660;5.616;2023-03-19T03:02:11;100747.66;;;10.22;100.00
64544;BME280;50936;51.660;5.616;2023-03-19T03:04:38;100749.38;;;10.23;100.00
64544;BME280;50936;51.660;5.616;2023-03-19T03:07:05;100740.34;;;10.24;100.00
64544;BME280;50936;51.660;5.616;2023-03-19T03:09:33;100743.97;;;10.23;100.00
64544;BME280;50936;51.660;5.616;2023-03-19T03:12:00;100740.34;;;10.24;100.00
64544;BME280;50936;51.660;5.616;2023-03-19T03:14:27;100743.03;;;10.24;100.00
64544;BME280;50936;51.660;5.616;2023-03-19T03:16:54;100734.94;;;10.24;100.00
64544;BME280;50936;51.660;5.616;2023-03-19T03:19:22;100741.28;;;10.23;100.00
64544;BME280;50936;51.660;5.616;2023-03-19T03:21:50;100746.69;;;10.23;100.00
64544;BME280;50936;51.660;5.616;2023-03-19T03:24:17;100747.66;;;10.22;100.00
64544;BME280;50936;51.660;5.616;2023-03-19T03:26:44;100748.63;;;10.21;100.00
64544;BME280;50936;51.660;5.616;2023-03-19T03:29:14;100744.19;;;10.20;100.00
64544;BME280;50936;51.660;5.616;2023-03-19T03:31:41;100749.59;;;10.20;100.00
64544;BME280;50936;51.660;5.616;2023-03-19T03:34:08;100742.28;;;10.22;100.00
64544;BME280;50936;51.660;5.616;2023-03-19T03:36:35;100751.13;;;10.24;100.00
64544;BME280;50936;51.660;5.616;2023-03-19T03:39:03;100753.69;;;10.26;100.00
64544;BME280;50936;51.660;5.616;2023-03-19T03:41:30;100746.38;;;10.28;100.00
64544;BME280;50936;51.660;5.616;2023-03-19T03:43:58;100742.69;;;10.29;100.00
64544;BME280;50936;51.660;5.616;2023-03-19T03:46:25;100737.41;;;10.27;100.00
64544;BME280;50936;51.660;5.616;2023-03-19T03:48:52;100738.38;;;10.26;100.00
64544;BME280;50936;51.660;5.616;2023-03-19T03:51:19;100740.34;;;10.24;100.00
64544;BME280;50936;51.660;5.616;2023-03-19T03:53:47;100749.59;;;10.20;100.00
64544;BME280;50936;51.660;5.616;2023-03-19T03:56:14;100741.63;;;10.18;100.00
64544;BME280;50936;51.660;5.616;2023-03-19T03:58:42;100746.13;;;10.18;100.00
64544;BME280;50936;51.660;5.616;2023-03-19T04:01:18;100757.25;;;10.13;100.00
64544;BME280;50936;51.660;5.616;2023-03-19T04:03:50;100757.56;;;10.09;100.00
64544;BME280;50936;51.660;5.616;2023-03-19T04:06:18;100763.19;;;10.06;100.00
64544;BME280;50936;51.660;5.616;2023-03-19T04:09:01;100760.91;;;9.99;100.00
64544;BME280;50936;51.660;5.616;2023-03-19T04:11:28;100761.31;;;9.93;100.00
64544;BME280;50936;51.660;5.616;2023-03-19T04:13:56;100762.72;;;9.86;100.00
64544;BME280;50936;51.660;5.616;2023-03-19T04:16:23;100763.91;;;9.82;100.00
64544;BME280;50936;51.660;5.616;2023-03-19T04:18:50;100763.13;;;9.80;100.00
64544;BME280;50936;51.660;5.616;2023-03-19T04:21:18;100757.28;;;9.73;100.00
64544;BME280;50936;51.660;5.616;2023-03-19T04:23:45;100757.56;;;9.69;100.00
64544;BME280;50936;51.660;5.616;2023-03-19T04:26:12;100756.63;;;9.70;100.00
64544;BME280;50936;51.660;5.616;2023-03-19T04:28:39;100763.94;;;9.68;100.00
64544;BME280;50936;51.660;5.616;2023-03-19T04:31:08;100762.63;;;9.60;100.00
64544;BME280;50936;51.660;5.616;2023-03-19T04:33:41;100764.75;;;9.55;100.00
64544;BME280;50936;51.660;5.616;2023-03-19T04:36:09;100766.13;;;9.48;100.00
64544;BME280;50936;51.660;5.616;2023-03-19T04:38:37;100761.91;;;9.44;100.00
64544;BME280;50936;51.660;5.616;2023-03-19T04:41:04;100772.69;;;9.44;100.00
64544;BME280;50936;51.660;5.616;2023-03-19T04:43:34;100776.56;;;9.40;100.00
64544;BME280;50936;51.660;5.616;2023-03-19T04:46:03;100775.03;;;9.36;100.00
64544;BME280;50936;51.660;5.616;2023-03-19T04:48:30;100767.91;;;9.35;100.00
64544;BME280;50936;51.660;5.616;2023-03-19T04:50:59;100771.56;;;9.34;100.00
64544;BME280;50936;51.660;5.616;2023-03-19T04:53:26;100769.75;;;9.34;100.00
64544;BME280;50936;51.660;5.616;2023-03-19T04:55:53;100766.41;;;9.31;100.00
64544;BME280;50936;51.660;5.616;2023-03-19T04:58:20;100763.13;;;9.25;100.00
64544;BME280;50936;51.660;5.616;2023-03-19T05:00:55;100768.91;;;9.19;100.00
64544;BME280;50936;51.660;5.616;2023-03-19T05:03:35;100776.81;;;9.08;100.00
64544;BME280;50936;51.660;5.616;2023-03-19T05:06:03;100776.81;;;9.08;100.00
64544;BME280;50936;51.660;5.616;2023-03-19T05:08:30;100785.88;;;9.07;100.00
64544;BME280;50936;51.660;5.616;2023-03-19T05:10:57;100783.19;;;9.07;100.00
64544;BME280;50936;51.660;5.616;2023-03-19T05:13:27;100782.44;;;9.05;100.00
64544;BME280;50936;51.660;5.616;2023-03-19T05:15:54;100791.28;;;9.07;100.00
64544;BME280;50936;51.660;5.616;2023-03-19T05:18:22;100803.97;;;9.05;100.00
64544;BME280;50936;51.660;5.616;2023-03-19T05:20:49;100803.31;;;9.01;100.00
64544;BME280;50936;51.660;5.616;2023-03-19T05:23:19;100800.69;;;9.00;100.00
64544;BME280;50936;51.660;5.616;2023-03-19T05:26:04;100802.81;;;8.95;100.00
64544;BME280;50936;51.660;5.616;2023-03-19T05:29:10;100797.81;;;8.89;100.00
64544;BME280;50936;51.660;5.616;2023-03-19T05:31:59;100805.50;;;8.80;100.00
64544;BME280;50936;51.660;5.616;2023-03-19T05:34:30;100813.50;;;8.82;100.00
64544;BME280;50936;51.660;5.616;2023-03-19T05:36:58;100808.03;;;8.83;100.00
64544;BME280;50936;51.660;5.616;2023-03-19T05:39:26;100803.78;;;8.79;100.00
64544;BME280;50936;51.660;5.616;2023-03-19T05:41:57;100809.53;;;8.73;100.00
64544;BME280;50936;51.660;5.616;2023-03-19T05:44:27;100809.75;;;8.70;100.00
64544;BME280;50936;51.660;5.616;2023-03-19T05:47:12;100806.47;;;8.65;100.00
64544;BME280;50936;51.660;5.616;2023-03-19T05:49:45;100808.19;;;8.66;100.00
64544;BME280;50936;51.660;5.616;2023-03-19T05:52:12;100815.31;;;8.67;100.00
64544;BME280;50936;51.660;5.616;2023-03-19T05:54:39;100817.25;;;8.65;100.00
64544;BME280;50936;51.660;5.616;2023-03-19T05:57:31;100823.00;;;8.59;100.00
64544;BME280;50936;51.660;5.616;2023-03-19T06:00:19;100823.19;;;8.56;100.00
64544;BME280;50936;51.660;5.616;2023-03-19T06:02:46;100820.78;;;8.51;100.00
64544;BME280;50936;51.660;5.616;2023-03-19T06:05:33;100828.94;;;8.50;100.00
64544;BME280;50936;51.660;5.616;2023-03-19T06:08:19;100826.25;;;8.50;100.00
64544;BME280;50936;51.660;5.616;2023-03-19T06:10:58;100831.63;;;8.50;100.00
64544;BME280;50936;51.660;5.616;2023-03-19T06:13:26;100830.69;;;8.51;100.00
64544;BME280;50936;51.660;5.616;2023-03-19T06:16:05;100830.50;;;8.54;100.00
64544;BME280;50936;51.660;5.616;2023-03-19T06:18:35;100839.34;;;8.56;100.00
64544;BME280;50936;51.660;5.616;2023-03-19T06:21:10;100840.22;;;8.56;100.00
64544;BME280;50936;51.660;5.616;2023-03-19T06:23:38;100842.63;;;8.61;100.00
64544;BME280;50936;51.660;5.616;2023-03-19T06:26:06;100840.22;;;8.56;100.00
64544;BME280;50936;51.660;5.616;2023-03-19T06:28:53;100848.19;;;8.58;100.00
64544;BME280;50936;51.660;5.616;2023-03-19T06:31:21;100860.50;;;8.62;100.00
64544;BME280;50936;51.660;5.616;2023-03-19T06:34:00;100859.38;;;8.80;100.00
64544;BME280;50936;51.660;5.616;2023-03-19T06:36:37;100864.88;;;8.93;100.00
64544;BME280;50936;51.660;5.616;2023-03-19T06:39:07;100862.56;;;9.01;100.00
64544;BME280;50936;51.660;5.616;2023-03-19T06:41:35;100865.19;;;9.03;100.00
64544;BME280;50936;51.660;5.616;2023-03-19T06:44:24;100860.56;;;9.05;100.00
64544;BME280;50936;51.660;5.616;2023-03-19T06:46:50;100868.81;;;9.16;100.00
64544;BME280;50936;51.660;5.616;2023-03-19T06:49:17;100871.50;;;9.16;100.00
64544;BME280;50936;51.660;5.616;2023-03-19T06:51:44;100876.06;;;9.16;100.00
64544;BME280;50936;51.660;5.616;2023-03-19T06:54:11;100882.47;;;9.13;100.00
64544;BME280;50936;51.660;5.616;2023-03-19T06:56:38;100879.19;;;9.08;100.00
64544;BME280;50936;51.660;5.616;2023-03-19T06:59:05;100880.44;;;9.02;100.00
64544;BME280;50936;51.660;5.616;2023-03-19T07:01:32;100885.94;;;9.01;100.00
64544;BME280;50936;51.660;5.616;2023-03-19T07:03:58;100882.38;;;9.00;100.00
64544;BME280;50936;51.660;5.616;2023-03-19T07:06:25;100885.16;;;8.99;100.00
64544;BME280;50936;51.660;5.616;2023-03-19T07:08:52;100892.13;;;9.03;100.00
64544;BME280;50936;51.660;5.616;2023-03-19T07:11:20;100899.22;;;9.18;100.00
64544;BME280;50936;51.660;5.616;2023-03-19T07:13:47;100893.25;;;9.42;100.00
64544;BME280;50936;51.660;5.616;2023-03-19T07:16:14;100891.97;;;9.62;100.00
64544;BME280;50936;51.660;5.616;2023-03-19T07:18:41;100896.94;;;9.82;100.00
64544;BME280;50936;51.660;5.616;2023-03-19T07:21:08;100902.25;;;10.11;100.00
64544;BME280;50936;51.660;5.616;2023-03-19T07:23:34;100908.75;;;10.49;100.00
64544;BME280;50936;51.660;5.616;2023-03-19T07:26:01;100913.03;;;11.04;100.00
64544;BME280;50936;51.660;5.616;2023-03-19T07:28:29;100912.75;;;11.59;100.00
64544;BME280;50936;51.660;5.616;2023-03-19T07:30:55;100920.91;;;11.96;100.00
64544;BME280;50936;51.660;5.616;2023-03-19T07:33:22;100912.97;;;12.29;100.00
64544;BME280;50936;51.660;5.616;2023-03-19T07:35:49;100917.56;;;12.64;100.00
64544;BME280;50936;51.660;5.616;2023-03-19T07:38:16;100918.13;;;12.92;100.00
64544;BME280;50936;51.660;5.616;2023-03-19T07:40:43;100926.03;;;13.18;100.00
64544;BME280;50936;51.660;5.616;2023-03-19T07:43:20;100929.72;;;13.17;100.00
64544;BME280;50936;51.660;5.616;2023-03-19T07:45:47;100922.25;;;12.74;100.00
64544;BME280;50936;51.660;5.616;2023-03-19T07:48:14;100919.66;;;12.37;100.00
64544;BME280;50936;51.660;5.616;2023-03-19T07:50:42;100919.78;;;12.11;100.00
64544;BME280;50936;51.660;5.616;2023-03-19T07:53:08;100930.03;;;11.82;100.00
64544;BME280;50936;51.660;5.616;2023-03-19T07:55:35;100927.88;;;11.61;100.00
64544;BME280;50936;51.660;5.616;2023-03-19T07:58:03;100922.75;;;11.45;100.00
64544;BME280;50936;51.660;5.616;2023-03-19T08:00:31;100923.63;;;11.33;100.00
64544;BME280;50936;51.660;5.616;2023-03-19T08:02:58;100919.31;;;11.30;100.00
64544;BME280;50936;51.660;5.616;2023-03-19T08:05:25;100923.16;;;11.26;100.00
64544;BME280;50936;51.660;5.616;2023-03-19T08:07:52;100929.69;;;11.24;100.00
64544;BME280;50936;51.660;5.616;2023-03-19T08:10:19;100931.63;;;11.22;100.00
64544;BME280;50936;51.660;5.616;2023-03-19T08:12:47;100930.78;;;11.21;100.00
64544;BME280;50936;51.660;5.616;2023-03-19T08:15:14;100938.53;;;11.26;100.00
64544;BME280;50936;51.660;5.616;2023-03-19T08:17:41;100940.69;;;11.33;100.00
64544;BME280;50936;51.660;5.616;2023-03-19T08:20:10;100940.94;;;11.43;100.00
64544;BME280;50936;51.660;5.616;2023-03-19T08:22:39;100946.09;;;11.46;100.00
64544;BME280;50936;51.660;5.616;2023-03-19T08:25:08;100938.31;;;11.54;100.00
64544;BME280;50936;51.660;5.616;2023-03-19T08:27:36;100942.50;;;11.59;100.00
64544;BME280;50936;51.660;5.616;2023-03-19T08:30:07;100948.78;;;11.59;100.00
64544;BME280;50936;51.660;5.616;2023-03-19T08:32:36;100952.38;;;11.60;100.00
64544;BME280;50936;51.660;5.616;2023-03-19T08:35:04;100950.63;;;11.59;100.00
64544;BME280;50936;51.660;5.616;2023-03-19T08:37:33;100957.66;;;11.48;100.00
64544;BME280;50936;51.660;5.616;2023-03-19T08:39:59;100962.13;;;11.36;100.00
64544;BME280;50936;51.660;5.616;2023-03-19T08:42:26;100967.97;;;11.30;100.00
64544;BME280;50936;51.660;5.616;2023-03-19T08:44:54;100965.78;;;11.23;100.00
64544;BME280;50936;51.660;5.616;2023-03-19T08:47:21;100971.44;;;11.20;100.00
64544;BME280;50936;51.660;5.616;2023-03-19T08:49:50;100966.66;;;11.10;100.00
64544;BME280;50936;51.660;5.616;2023-03-19T08:52:18;100969.03;;;11.02;100.00
64544;BME280;50936;51.660;5.616;2023-03-19T08:54:46;100967.31;;;11.01;100.00
64544;BME280;50936;51.660;5.616;2023-03-19T08:57:13;100973.03;;;11.09;100.00
64544;BME280;50936;51.660;5.616;2023-03-19T08:59:39;100977.03;;;11.16;100.00
64544;BME280;50936;51.660;5.616;2023-03-19T09:02:09;100976.19;;;11.29;100.00
64544;BME280;50936;51.660;5.616;2023-03-19T09:04:42;100979.19;;;11.37;100.00
64544;BME280;50936;51.660;5.616;2023-03-19T09:07:10;100982.44;;;11.42;100.00
64544;BME280;50936;51.660;5.616;2023-03-19T09:09:42;100984.19;;;11.43;100.00
64544;BME280;50936;51.660;5.616;2023-03-19T09:12:12;100984.59;;;11.37;100.00
64544;BME280;50936;51.660;5.616;2023-03-19T09:14:41;100987.09;;;11.27;100.00
64544;BME280;50936;51.660;5.616;2023-03-19T09:17:10;100990.34;;;11.20;100.00
64544;BME280;50936;51.660;5.616;2023-03-19T09:19:38;100993.47;;;11.13;100.00
64544;BME280;50936;51.660;5.616;2023-03-19T09:22:06;100995.66;;;11.08;100.00
64544;BME280;50936;51.660;5.616;2023-03-19T09:24:33;100993.91;;;11.07;100.00
64544;BME280;50936;51.660;5.616;2023-03-19T09:27:00;101002.56;;;11.12;100.00
64544;BME280;50936;51.660;5.616;2023-03-19T09:29:27;101002.78;;;11.22;100.00
64544;BME280;50936;51.660;5.616;2023-03-19T09:31:54;101007.00;;;11.39;100.00
64544;BME280;50936;51.660;5.616;2023-03-19T09:34:21;101010.13;;;11.59;100.00
64544;BME280;50936;51.660;5.616;2023-03-19T09:36:48;101016.41;;;11.72;100.00
64544;BME280;50936;51.660;5.616;2023-03-19T09:39:14;101020.09;;;11.84;100.00
64544;BME280;50936;51.660;5.616;2023-03-19T09:44:45;101031.00;;;12.08;100.00
64544;BME280;50936;51.660;5.616;2023-03-19T09:50:03;101038.91;;;12.11;100.00
64544;BME280;50936;51.660;5.616;2023-03-19T09:52:44;101037.84;;;12.01;100.00
64544;BME280;50936;51.660;5.616;2023-03-19T09:57:59;101054.03;;;12.26;100.00
64544;BME280;50936;51.660;5.616;2023-03-19T10:00:35;101045.91;;;12.50;100.00
64544;BME280;50936;51.660;5.616;2023-03-19T10:06:32;101039.81;;;12.36;100.00
64544;BME280;50936;51.660;5.616;2023-03-19T10:17:32;101038.59;;;12.40;100.00
64544;BME280;50936;51.660;5.616;2023-03-19T10:26:10;101026.63;;;13.26;100.00
64544;BME280;50936;51.660;5.616;2023-03-19T10:28:44;101041.78;;;13.75;100.00
64544;BME280;50936;51.660;5.616;2023-03-19T10:31:29;101049.44;;;14.15;100.00
64544;BME280;50936;51.660;5.616;2023-03-19T10:39:50;101042.81;;;15.49;100.00
64544;BME280;50936;51.660;5.616;2023-03-19T10:47:56;101049.44;;;15.98;91.59
64544;BME280;50936;51.660;5.616;2023-03-19T10:55:54;101062.91;;;16.00;94.70
64544;BME280;50936;51.660;5.616;2023-03-19T10:58:35;101057.00;;;16.35;93.05
64544;BME280;50936;51.660;5.616;2023-03-19T11:01:10;101068.00;;;16.74;91.14
64544;BME280;50936;51.660;5.616;2023-03-19T11:03:49;101072.09;;;16.89;89.75
64544;BME280;50936;51.660;5.616;2023-03-19T11:06:32;101074.66;;;17.01;90.16
64544;BME280;50936;51.660;5.616;2023-03-19T11:11:47;101066.75;;;16.28;91.47
64544;BME280;50936;51.660;5.616;2023-03-19T11:14:41;101071.56;;;15.84;93.95
64544;BME280;50936;51.660;5.616;2023-03-19T11:22:54;101081.66;;;14.42;100.00
64544;BME280;50936;51.660;5.616;2023-03-19T11:25:30;101071.03;;;14.39;100.00
64544;BME280;50936;51.660;5.616;2023-03-19T11:28:11;101074.38;;;14.54;100.00
64544;BME280;50936;51.660;5.616;2023-03-19T11:30:46;101079.78;;;14.77;100.00
64544;BME280;50936;51.660;5.616;2023-03-19T11:33:56;101070.59;;;15.43;100.00
64544;BME280;50936;51.660;5.616;2023-03-19T11:36:37;101077.16;;;15.61;100.00
64544;BME280;50936;51.660;5.616;2023-03-19T11:39:32;101087.09;;;15.51;99.39
64544;BME280;50936;51.660;5.616;2023-03-19T11:45:29;101079.44;;;15.02;99.11
64544;BME280;50936;51.660;5.616;2023-03-19T11:48:33;101084.34;;;15.09;100.00
64544;BME280;50936;51.660;5.616;2023-03-19T11:51:10;101083.91;;;15.46;100.00
64544;BME280;50936;51.660;5.616;2023-03-19T11:53:56;101082.38;;;15.53;98.96
64544;BME280;50936;51.660;5.616;2023-03-19T11:56:30;101087.66;;;15.45;98.23
64544;BME280;50936;51.660;5.616;2023-03-19T12:07:45;101081.00;;;17.40;89.11
64544;BME280;50936;51.660;5.616;2023-03-19T12:10:51;101080.97;;;17.50;87.58
64544;BME280;50936;51.660;5.616;2023-03-19T12:33:45;101076.22;;;18.19;82.69
64544;BME280;50936;51.660;5.616;2023-03-19T12:36:25;101073.00;;;17.76;82.81
64544;BME280;50936;51.660;5.616;2023-03-19T12:39:05;101078.97;;;17.32;85.33
64544;BME280;50936;51.660;5.616;2023-03-19T12:41:42;101093.06;;;16.99;87.14
64544;BME280;50936;51.660;5.616;2023-03-19T12:44:22;101090.06;;;16.61;89.82
64544;BME280;50936;51.660;5.616;2023-03-19T12:47:06;101080.56;;;16.36;91.41
64544;BME280;50936;51.660;5.616;2023-03-19T12:49:52;101083.56;;;16.02;93.31
64544;BME280;50936;51.660;5.616;2023-03-19T12:52:38;101085.16;;;16.05;95.05
64544;BME280;50936;51.660;5.616;2023-03-19T13:00:56;101086.75;;;17.27;89.11
64544;BME280;50936;51.660;5.616;2023-03-19T13:03:35;101085.56;;;17.40;89.09
64544;BME280;50936;51.660;5.616;2023-03-19T13:06:17;101083.84;;;17.29;87.67
64544;BME280;50936;51.660;5.616;2023-03-19T13:14:24;101094.78;;;17.19;91.29
64544;BME280;50936;51.660;5.616;2023-03-19T13:17:36;101089.72;;;17.73;88.19
64544;BME280;50936;51.660;5.616;2023-03-19T13:23:38;101101.94;;;17.40;85.00
64544;BME280;50936;51.660;5.616;2023-03-19T13:26:11;101100.06;;;16.91;87.20
64544;BME280;50936;51.660;5.616;2023-03-19T13:28:54;101102.13;;;16.59;87.42
64544;BME280;50936;51.660;5.616;2023-03-19T13:31:30;101106.78;;;16.37;90.23
64544;BME280;50936;51.660;5.616;2023-03-19T13:34:01;101111.16;;;16.19;91.03
64544;BME280;50936;51.660;5.616;2023-03-19T13:36:39;101111.09;;;15.99;92.87
64544;BME280;50936;51.660;5.616;2023-03-19T13:39:13;101112.16;;;15.87;94.79
64544;BME280;50936;51.660;5.616;2023-03-19T13:44:33;101115.63;;;16.20;96.01
64544;BME280;50936;51.660;5.616;2023-03-19T13:55:32;101106.13;;;18.48;84.26
64544;BME280;50936;51.660;5.616;2023-03-19T13:58:17;101127.47;;;18.72;80.49
64544;BME280;50936;51.660;5.616;2023-03-19T14:01:08;101122.84;;;18.73;79.28
64544;BME280;50936;51.660;5.616;2023-03-19T14:09:33;101124.16;;;18.03;84.15
64544;BME280;50936;51.660;5.616;2023-03-19T14:14:46;101120.25;;;18.16;84.09
64544;BME280;50936;51.660;5.616;2023-03-19T14:19:50;101126.13;;;19.04;80.27
64544;BME280;50936;51.660;5.616;2023-03-19T14:22:30;101126.16;;;19.40;76.73
64544;BME280;50936;51.660;5.616;2023-03-19T14:25:13;101124.56;;;19.73;72.05
64544;BME280;50936;51.660;5.616;2023-03-19T14:27:47;101118.75;;;19.58;71.13
64544;BME280;50936;51.660;5.616;2023-03-19T14:30:44;101116.91;;;19.05;72.35
64544;BME280;50936;51.660;5.616;2023-03-19T14:33:21;101112.25;;;18.60;74.60
64544;BME280;50936;51.660;5.616;2023-03-19T14:35:52;101107.06;;;18.66;78.29
64544;BME280;50936;51.660;5.616;2023-03-19T14:38:28;101105.41;;;19.01;75.17
64544;BME280;50936;51.660;5.616;2023-03-19T14:41:03;101111.75;;;19.20;74.06
64544;BME280;50936;51.660;5.616;2023-03-19T14:46:50;101110.25;;;19.43;71.78
64544;BME280;50936;51.660;5.616;2023-03-19T14:50:02;101125.28;;;19.21;71.63
64544;BME280;50936;51.660;5.616;2023-03-19T14:53:09;101129.56;;;19.06;71.47
64544;BME280;50936;51.660;5.616;2023-03-19T14:55:49;101131.16;;;18.81;73.78
64544;BME280;50936;51.660;5.616;2023-03-19T14:58:19;101132.53;;;18.95;75.72
64544;BME280;50936;51.660;5.616;2023-03-19T15:00:52;101122.56;;;19.21;73.00
64544;BME280;50936;51.660;5.616;2023-03-19T15:03:32;101123.97;;;19.43;71.52
64544;BME280;50936;51.660;5.616;2023-03-19T15:06:06;101122.63;;;19.48;71.59
64544;BME280;50936;51.660;5.616;2023-03-19T15:08:39;101136.84;;;19.33;72.54
64544;BME280;50936;51.660;5.616;2023-03-19T15:19:25;101132.59;;;18.85;70.74
64544;BME280;50936;51.660;5.616;2023-03-19T15:22:11;101130.56;;;18.87;71.01
64544;BME280;50936;51.660;5.616;2023-03-19T15:24:46;101137.84;;;18.69;70.97